Time;durP1;ratioP1;P1;durP2;ratioP2;P2;SDS_P1;SDS_P2;PMS_P1;PMS_P2;Temp;Humidity;BMP_temperature;BMP_pressure;BME280_temperature;BME280_humidity;BME280_pressure;Samples;Min_cycle;Max_cycle;Signal;HPM_P1;HPM_P2
2021/01/14 00:00:49;;;;;;;0.8;0.6;;;;;;;3.3;86.96094;931.7647;;;;
2021/01/14 00:03:16;;;;;;;0.5;0.5;;;;;;;3.27;87.37109;931.7095;;;;
2021/01/14 00:05:41;;;;;;;0.9;0.5;;;;;;;3.33;86.8877;931.7001;;;;
2021/01/14 00:08:07;;;;;;;0.3;0.3;;;;;;;3.16;87.66309;931.6592;;;;
2021/01/14 00:10:32;;;;;;;0.4;0.4;;;;;;;3.15;87.97363;931.5536;;;;
2021/01/14 00:12:57;;;;;;;0.8;0.8;;;;;;;3.16;88.13477;931.634;;;;
2021/01/14 00:15:22;;;;;;;1;0.7;;;;;;;3.24;87.55664;931.557;;;;
2021/01/14 00:17:50;;;;;;;0.7;0.6;;;;;;;3.32;87.11035;931.5952;;;;
2021/01/14 00:20:15;;;;;;;0.3;0.3;;;;;;;3.42;86.5918;931.4964;;;;
2021/01/14 00:22:40;;;;;;;0.5;0.4;;;;;;;3.5;86.27148;931.4081;;;;
2021/01/14 00:25:05;;;;;;;0.8;0.6;;;;;;;3.52;86.1875;931.4833;;;;
2021/01/14 00:27:30;;;;;;;0.2;0.2;;;;;;;3.37;86.17871;931.45;;;;
2021/01/14 00:29:55;;;;;;;0.3;0.3;;;;;;;3.42;86.69531;931.4644;;;;
2021/01/14 00:32:20;;;;;;;0.4;0.3;;;;;;;3.42;86.49316;931.4666;;;;
2021/01/14 00:34:46;;;;;;;0.4;0.4;;;;;;;3.4;86.88086;931.3738;;;;
2021/01/14 00:39:37;;;;;;;0.3;0.3;;;;;;;3.58;86.27734;931.3933;;;;
2021/01/14 00:42:03;;;;;;;0.3;0.3;;;;;;;3.69;86.06152;931.445;;;;
2021/01/14 00:44:28;;;;;;;0.2;0.2;;;;;;;3.56;86.11426;931.2723;;;;
2021/01/14 00:46:53;;;;;;;0.3;0.3;;;;;;;3.55;86.36133;931.2353;;;;
2021/01/14 00:49:18;;;;;;;0;0;;;;;;;3.63;85.89258;931.2405;;;;
2021/01/14 00:51:43;;;;;;;0.1;0.1;;;;;;;3.43;86.96484;931.1057;;;;
2021/01/14 00:54:08;;;;;;;0.1;0.1;;;;;;;3.41;87.25098;931.205;;;;
2021/01/14 00:56:33;;;;;;;0.2;0.2;;;;;;;3.4;87.50879;931.0811;;;;
2021/01/14 00:58:58;;;;;;;0.1;0.1;;;;;;;3.54;87.29004;931.2177;;;;
2021/01/14 01:01:26;;;;;;;0.1;0.1;;;;;;;3.57;86.44336;931.1145;;;;
2021/01/14 01:03:52;;;;;;;0.1;0.1;;;;;;;3.65;86.29199;931.1987;;;;
2021/01/14 01:06:20;;;;;;;0;0;;;;;;;3.73;85.8252;931.2012;;;;
2021/01/14 01:08:45;;;;;;;0.1;0.1;;;;;;;3.58;86.44531;931.1422;;;;
2021/01/14 01:11:10;;;;;;;0.2;0.2;;;;;;;3.62;86.17188;931.1553;;;;
2021/01/14 01:13:35;;;;;;;0.1;0.1;;;;;;;3.69;86.35547;931.0697;;;;
2021/01/14 01:16:00;;;;;;;0.3;0.3;;;;;;;3.87;85.91992;931.2072;;;;
2021/01/14 01:18:25;;;;;;;0.3;0.2;;;;;;;3.94;85.32715;931.1395;;;;
2021/01/14 01:20:50;;;;;;;0.3;0.3;;;;;;;3.97;84.89355;931.2842;;;;
2021/01/14 01:23:15;;;;;;;0.2;0.2;;;;;;;3.97;84.90723;931.2173;;;;
2021/01/14 01:25:40;;;;;;;0.3;0.3;;;;;;;4.02;84.67773;931.2477;;;;
2021/01/14 01:28:06;;;;;;;0;0;;;;;;;3.99;84.68359;931.3555;;;;
2021/01/14 01:30:31;;;;;;;0.1;0.1;;;;;;;3.63;86.08398;931.0933;;;;
2021/01/14 01:32:56;;;;;;;0;0;;;;;;;3.44;86.96875;931.5215;;;;
2021/01/14 01:35:21;;;;;;;0.3;0.2;;;;;;;3.3;88.47656;931.5129;;;;
2021/01/14 01:37:47;;;;;;;0.4;0.2;;;;;;;3.59;87.77344;931.3205;;;;
2021/01/14 01:40:13;;;;;;;0.2;0.2;;;;;;;3.35;88.78906;931.3622;;;;
2021/01/14 01:42:38;;;;;;;0.3;0.3;;;;;;;3.6;88.14746;931.4514;;;;
2021/01/14 01:45:03;;;;;;;0.2;0.2;;;;;;;3.72;87.54102;931.3922;;;;
2021/01/14 01:47:33;;;;;;;0.2;0.2;;;;;;;3.84;86.44043;931.4646;;;;
2021/01/14 01:49:53;;;;;;;0.2;0.2;;;;;;;3.89;86.15039;931.3162;;;;
2021/01/14 01:52:18;;;;;;;0.4;0.4;;;;;;;3.97;85.77148;931.325;;;;
2021/01/14 01:54:43;;;;;;;0.5;0.5;;;;;;;3.81;85.99707;931.2198;;;;
2021/01/14 01:57:08;;;;;;;0.6;0.4;;;;;;;3.66;86.6084;931.3209;;;;
2021/01/14 01:59:33;;;;;;;0.4;0.3;;;;;;;3.59;86.94141;931.3141;;;;
2021/01/14 02:01:59;;;;;;;0.9;0.7;;;;;;;3.65;87.12305;931.4301;;;;
2021/01/14 02:04:24;;;;;;;0.4;0.4;;;;;;;3.74;86.9375;931.4423;;;;
2021/01/14 02:06:49;;;;;;;0.6;0.4;;;;;;;3.58;87.28809;931.206;;;;
2021/01/14 02:09:14;;;;;;;0.7;0.7;;;;;;;3.56;87.55176;931.2622;;;;
2021/01/14 02:11:39;;;;;;;0.6;0.5;;;;;;;3.04;89.83594;931.4099;;;;
2021/01/14 02:14:04;;;;;;;2.1;0.7;;;;;;;3.32;89.26855;931.4026;;;;
2021/01/14 02:16:29;;;;;;;0.1;0.1;;;;;;;3.44;89.45996;931.3105;;;;
2021/01/14 02:18:55;;;;;;;0.3;0.3;;;;;;;3.64;89.07617;931.392;;;;
2021/01/14 02:21:20;;;;;;;0.1;0.1;;;;;;;3.47;89.61328;931.3467;;;;
2021/01/14 02:23:45;;;;;;;0.2;0.2;;;;;;;3.48;89.76074;931.3344;;;;
2021/01/14 02:26:10;;;;;;;0;0;;;;;;;3.5;90.66309;931.3813;;;;
2021/01/14 02:28:36;;;;;;;0.1;0.1;;;;;;;3.23;91.98438;931.3458;;;;
2021/01/14 02:31:01;;;;;;;0.1;0.1;;;;;;;3.19;92.21582;931.4753;;;;
2021/01/14 02:33:27;;;;;;;0.3;0.2;;;;;;;3.22;92.00684;931.5762;;;;
2021/01/14 02:35:52;;;;;;;0;0;;;;;;;3.2;92.19336;931.621;;;;
2021/01/14 02:38:17;;;;;;;0.1;0.1;;;;;;;3.35;91.24805;931.5023;;;;
2021/01/14 02:40:42;;;;;;;0.1;0.1;;;;;;;3.12;91.2002;931.493;;;;
2021/01/14 02:43:07;;;;;;;0.1;0.1;;;;;;;3.01;92.00684;931.3738;;;;
2021/01/14 02:45:32;;;;;;;0.2;0.2;;;;;;;2.83;92.08008;931.3898;;;;
2021/01/14 02:47:58;;;;;;;0.1;0.1;;;;;;;2.48;93.36133;931.5974;;;;
2021/01/14 02:50:23;;;;;;;0.1;0.1;;;;;;;2.42;94.25293;931.455;;;;
2021/01/14 02:52:48;;;;;;;0.1;0.1;;;;;;;2.39;93.95703;931.5082;;;;
2021/01/14 02:55:13;;;;;;;0.1;0.1;;;;;;;2.42;93.88477;931.6122;;;;
2021/01/14 02:57:38;;;;;;;0.1;0.1;;;;;;;2.21;94.375;931.699;;;;
2021/01/14 03:00:03;;;;;;;0.2;0.2;;;;;;;2.16;94.54395;931.7659;;;;
2021/01/14 03:02:29;;;;;;;0;0;;;;;;;2.07;95.27148;931.8886;;;;
2021/01/14 03:04:54;;;;;;;0.1;0.1;;;;;;;2.1;94.8877;931.8016;;;;
2021/01/14 03:07:20;;;;;;;0;0;;;;;;;2.16;94.79883;931.8285;;;;
2021/01/14 03:09:45;;;;;;;0.2;0.2;;;;;;;2.16;94.7793;931.7863;;;;
2021/01/14 03:12:11;;;;;;;0.1;0.1;;;;;;;2.22;94.20898;931.7558;;;;
2021/01/14 03:14:37;;;;;;;0.1;0.1;;;;;;;2.12;94.91406;931.8738;;;;
2021/01/14 03:17:03;;;;;;;0.1;0.1;;;;;;;1.97;95.75488;931.964;;;;
2021/01/14 03:19:28;;;;;;;0.1;0.1;;;;;;;2.13;95.1084;931.8741;;;;
2021/01/14 03:21:55;;;;;;;0;0;;;;;;;2.12;95.00586;931.9775;;;;
2021/01/14 03:24:20;;;;;;;0.1;0.1;;;;;;;2.08;95.06055;932.0695;;;;
2021/01/14 03:26:46;;;;;;;0;0;;;;;;;2;95.7832;932.2622;;;;
2021/01/14 03:29:11;;;;;;;0.1;0.1;;;;;;;2.03;95.38672;932.2981;;;;
2021/01/14 03:31:36;;;;;;;0;0;;;;;;;1.92;95.5752;932.1398;;;;
2021/01/14 03:34:01;;;;;;;0.1;0.1;;;;;;;1.88;96.34766;932.2333;;;;
2021/01/14 03:36:32;;;;;;;0.1;0.1;;;;;;;2.01;95.80762;932.3894;;;;
2021/01/14 03:38:51;;;;;;;0.1;0.1;;;;;;;1.88;95.87793;932.3588;;;;
2021/01/14 03:41:17;;;;;;;0.1;0.1;;;;;;;1.79;96.16113;932.5757;;;;
2021/01/14 03:43:42;;;;;;;0.1;0.1;;;;;;;1.88;96.12598;932.6855;;;;
2021/01/14 03:46:07;;;;;;;0.1;0.1;;;;;;;1.85;96.40918;932.8329;;;;
2021/01/14 03:48:32;;;;;;;0.1;0.1;;;;;;;1.76;96.82617;932.9709;;;;
2021/01/14 03:50:59;;;;;;;0.1;0.1;;;;;;;1.89;96.41895;933.1669;;;;
2021/01/14 03:53:24;;;;;;;0.1;0.1;;;;;;;1.93;96.25977;933.1823;;;;
2021/01/14 03:55:49;;;;;;;0.1;0.1;;;;;;;2.08;95.3877;933.2883;;;;
2021/01/14 03:58:15;;;;;;;0.1;0.1;;;;;;;2.11;94.76855;933.3639;;;;
2021/01/14 04:02:29;;;;;;;0.1;0.1;;;;;;;1.9;95.22363;933.3008;;;;
2021/01/14 04:04:54;;;;;;;0.1;0.1;;;;;;;1.68;95.91309;933.2619;;;;
2021/01/14 04:07:20;;;;;;;0.1;0.1;;;;;;;1.65;96.71191;933.2859;;;;
2021/01/14 04:09:45;;;;;;;0.1;0.1;;;;;;;1.56;97.31836;933.1868;;;;
2021/01/14 04:12:11;;;;;;;0.1;0.1;;;;;;;1.52;97.45117;933.248;;;;
2021/01/14 04:14:36;;;;;;;0.1;0.1;;;;;;;1.41;97.77441;933.187;;;;
2021/01/14 04:17:02;;;;;;;0.1;0.1;;;;;;;1.49;98.17285;933.3489;;;;
2021/01/14 04:19:27;;;;;;;0.1;0.1;;;;;;;1.56;98.05371;933.4572;;;;
2021/01/14 04:21:53;;;;;;;0.1;0.1;;;;;;;1.44;98.41797;933.3215;;;;
2021/01/14 04:24:18;;;;;;;0.2;0.2;;;;;;;1.35;98.64258;933.5242;;;;
2021/01/14 04:26:45;;;;;;;0.1;0.1;;;;;;;1.25;99.40137;933.6603;;;;
2021/01/14 04:29:10;;;;;;;0.1;0.1;;;;;;;1.32;99.58398;933.803;;;;
2021/01/14 04:31:37;;;;;;;0.1;0.1;;;;;;;1.42;99.20703;933.7631;;;;
2021/01/14 04:34:02;;;;;;;0.2;0.2;;;;;;;1.32;99.22656;933.8014;;;;
2021/01/14 04:36:28;;;;;;;0.1;0.1;;;;;;;1.22;99.27051;933.935;;;;
2021/01/14 04:38:53;;;;;;;0.1;0.1;;;;;;;1.22;99.49609;933.8677;;;;
2021/01/14 04:41:20;;;;;;;0.1;0.1;;;;;;;1.11;99.6582;933.9433;;;;
2021/01/14 04:43:45;;;;;;;0.1;0.1;;;;;;;1.09;99.66504;934.0594;;;;
2021/01/14 04:46:12;;;;;;;0.1;0.1;;;;;;;0.99;99.35352;933.8524;;;;
2021/01/14 04:48:37;;;;;;;0;0;;;;;;;1.03;99.39551;934.1573;;;;
2021/01/14 04:51:02;;;;;;;0.1;0.1;;;;;;;1.1;99.32129;934.2463;;;;
2021/01/14 04:53:27;;;;;;;0;0;;;;;;;1.15;99.07422;934.2017;;;;
2021/01/14 04:55:52;;;;;;;0.1;0.1;;;;;;;1.04;98.79199;934.1899;;;;
2021/01/14 04:58:19;;;;;;;0.1;0.1;;;;;;;1.05;99.00879;934.3697;;;;
2021/01/14 05:00:44;;;;;;;0.1;0.1;;;;;;;1.1;98.5498;934.2211;;;;
2021/01/14 05:03:09;;;;;;;0.1;0.1;;;;;;;1.09;98.24414;934.4425;;;;
2021/01/14 05:05:34;;;;;;;0.1;0.1;;;;;;;1.12;97.50488;934.421;;;;
2021/01/14 05:07:59;;;;;;;0.1;0.1;;;;;;;0.99;97.80078;934.5139;;;;
2021/01/14 05:10:24;;;;;;;0.1;0.1;;;;;;;1.07;97.12598;934.5376;;;;
2021/01/14 05:12:49;;;;;;;0.1;0.1;;;;;;;1.03;96.37988;934.5644;;;;
2021/01/14 05:15:14;;;;;;;0.1;0.1;;;;;;;1.1;96.51953;934.65;;;;
2021/01/14 05:17:41;;;;;;;0.1;0.1;;;;;;;1.21;96.55566;934.7073;;;;
2021/01/14 05:20:06;;;;;;;11.9;7.3;;;;;;;1.43;96.21387;934.5753;;;;
2021/01/14 05:22:32;;;;;;;0.6;0.6;;;;;;;1.51;96.1543;934.6727;;;;
2021/01/14 05:24:57;;;;;;;0.2;0.2;;;;;;;1.59;95.55762;934.7153;;;;
2021/01/14 05:27:23;;;;;;;0.3;0.3;;;;;;;1.51;95.33789;934.5798;;;;
2021/01/14 05:29:48;;;;;;;0.1;0.1;;;;;;;1.61;94.85742;934.8003;;;;
2021/01/14 05:32:13;;;;;;;0.3;0.2;;;;;;;1.51;94.83496;934.8089;;;;
2021/01/14 05:34:38;;;;;;;0.2;0.2;;;;;;;1.44;94.83008;934.7711;;;;
2021/01/14 05:37:03;;;;;;;0.2;0.2;;;;;;;1.36;95.3252;934.8977;;;;
2021/01/14 05:39:29;;;;;;;0.1;0.1;;;;;;;1.33;95.26367;934.9163;;;;
2021/01/14 05:41:54;;;;;;;0.3;0.3;;;;;;;1.41;95.16992;934.8309;;;;
2021/01/14 05:44:20;;;;;;;0.2;0.2;;;;;;;1.43;95.2207;934.8397;;;;
2021/01/14 05:46:45;;;;;;;0.3;0.3;;;;;;;1.59;94.69629;934.7994;;;;
2021/01/14 05:49:11;;;;;;;0.2;0.2;;;;;;;1.42;94.79004;934.7865;;;;
2021/01/14 05:51:36;;;;;;;0.3;0.3;;;;;;;1.56;94.56738;934.6688;;;;
2021/01/14 05:54:03;;;;;;;0.2;0.2;;;;;;;1.62;94.12109;934.7011;;;;
2021/01/14 05:56:28;;;;;;;0.5;0.5;;;;;;;1.55;94.66406;934.8575;;;;
2021/01/14 05:58:53;;;;;;;0.5;0.2;;;;;;;1.66;94.6543;934.6515;;;;
2021/01/14 06:01:18;;;;;;;0.2;0.2;;;;;;;1.67;94.19824;934.6361;;;;
2021/01/14 06:03:43;;;;;;;0.2;0.2;;;;;;;1.62;94.02051;934.6578;;;;
2021/01/14 06:06:09;;;;;;;1.1;1;;;;;;;1.68;93.97656;934.7888;;;;
2021/01/14 06:08:34;;;;;;;0.4;0.4;;;;;;;1.82;93.53906;934.7642;;;;
2021/01/14 06:10:59;;;;;;;0.8;0.5;;;;;;;1.93;93.03613;934.7792;;;;
2021/01/14 06:13:24;;;;;;;1.7;0.2;;;;;;;1.93;92.78809;934.8552;;;;
2021/01/14 06:15:50;;;;;;;0.3;0.2;;;;;;;1.79;92.58203;934.8603;;;;
2021/01/14 06:18:15;;;;;;;0.2;0.2;;;;;;;1.68;92.74805;934.6955;;;;
2021/01/14 06:20:40;;;;;;;0.1;0.1;;;;;;;1.59;93.27441;934.7167;;;;
2021/01/14 06:23:06;;;;;;;0.2;0.2;;;;;;;1.56;94.15332;934.6326;;;;
2021/01/14 06:25:31;;;;;;;0.2;0.2;;;;;;;1.66;94.32129;934.5999;;;;
2021/01/14 06:27:56;;;;;;;0.3;0.2;;;;;;;1.49;94.64063;934.6049;;;;
2021/01/14 06:30:21;;;;;;;0.3;0.3;;;;;;;1.7;94.49512;934.718;;;;
2021/01/14 06:32:46;;;;;;;0.2;0.2;;;;;;;1.72;94.38867;934.7853;;;;
2021/01/14 06:35:11;;;;;;;0.1;0.1;;;;;;;1.71;94.08496;934.8259;;;;
2021/01/14 06:37:37;;;;;;;0.3;0.3;;;;;;;1.57;94.55664;934.9619;;;;
2021/01/14 06:40:02;;;;;;;0.4;0.4;;;;;;;1.6;94.79688;935.0497;;;;
2021/01/14 06:42:28;;;;;;;0.5;0.5;;;;;;;1.36;95.50488;935.0178;;;;
2021/01/14 06:44:54;;;;;;;0.4;0.4;;;;;;;1.12;96.5332;935.0469;;;;
2021/01/14 06:47:19;;;;;;;0.3;0.3;;;;;;;1.23;96.54883;935.0341;;;;
2021/01/14 06:49:46;;;;;;;1.6;1.2;;;;;;;1.14;96.61523;934.9596;;;;
2021/01/14 06:52:11;;;;;;;1;0.8;;;;;;;1.2;96.64063;934.8538;;;;
2021/01/14 06:54:37;;;;;;;2.4;1.3;;;;;;;1.36;96.0293;934.949;;;;
2021/01/14 06:57:02;;;;;;;1.2;1.1;;;;;;;1.26;95.73926;934.9519;;;;
2021/01/14 06:59:27;;;;;;;1.9;1.2;;;;;;;1.49;95.44531;934.8943;;;;
2021/01/14 07:01:52;;;;;;;0.3;0.3;;;;;;;1.61;94.53516;935.0468;;;;
2021/01/14 07:04:20;;;;;;;0.6;0.6;;;;;;;1.55;94.42871;935.0221;;;;
2021/01/14 07:06:45;;;;;;;0.2;0.2;;;;;;;1.52;94.8252;935.1435;;;;
2021/01/14 07:09:11;;;;;;;0.5;0.3;;;;;;;1.54;95.04199;935.1379;;;;
2021/01/14 07:11:36;;;;;;;0.2;0.2;;;;;;;1.62;94.69141;935.1403;;;;
2021/01/14 07:14:01;;;;;;;0.3;0.3;;;;;;;1.49;94.69629;935.194;;;;
2021/01/14 07:16:26;;;;;;;1;0.4;;;;;;;1.67;94.36621;935.1705;;;;
2021/01/14 07:18:52;;;;;;;0;0;;;;;;;1.53;94.6709;935.1594;;;;
2021/01/14 07:21:17;;;;;;;0.6;0.6;;;;;;;1.27;95.5625;935.1696;;;;
2021/01/14 07:23:42;;;;;;;0.3;0.3;;;;;;;1.16;96.18555;935.2019;;;;
2021/01/14 07:26:07;;;;;;;0.5;0.5;;;;;;;1.41;95.80762;935.3134;;;;
2021/01/14 07:28:32;;;;;;;0.7;0.7;;;;;;;1.63;95.14258;935.5153;;;;
2021/01/14 07:30:57;;;;;;;0.4;0.4;;;;;;;1.58;95.20898;935.535;;;;
2021/01/14 07:33:22;;;;;;;1.2;0.6;;;;;;;1.67;95.03906;935.4854;;;;
2021/01/14 07:35:49;;;;;;;0.3;0.3;;;;;;;1.62;94.98242;935.5806;;;;
2021/01/14 07:38:12;;;;;;;0.2;0.2;;;;;;;1.61;94.93555;935.512;;;;
2021/01/14 07:40:38;;;;;;;0.2;0.2;;;;;;;1.53;94.69336;935.5148;;;;
2021/01/14 07:43:03;;;;;;;0.3;0.3;;;;;;;1.75;94.03906;935.4907;;;;
2021/01/14 07:45:28;;;;;;;0.4;0.4;;;;;;;1.86;93.87109;935.4894;;;;
2021/01/14 07:47:53;;;;;;;1.1;0.8;;;;;;;2.04;93.28418;935.5795;;;;
2021/01/14 07:50:18;;;;;;;0.6;0.6;;;;;;;2.07;92.18359;935.5108;;;;
2021/01/14 07:52:44;;;;;;;0.3;0.3;;;;;;;2.19;92.04199;935.4986;;;;
2021/01/14 07:55:09;;;;;;;0.3;0.3;;;;;;;2.34;91.33594;935.5712;;;;
2021/01/14 07:57:34;;;;;;;0.6;0.3;;;;;;;2.24;90.80859;935.7363;;;;
2021/01/14 07:59:59;;;;;;;0.4;0.4;;;;;;;2.08;91.19922;935.8337;;;;
2021/01/14 08:02:25;;;;;;;2.6;0.9;;;;;;;1.93;91.61328;935.8428;;;;
2021/01/14 08:04:52;;;;;;;0.2;0.2;;;;;;;1.86;91.61133;935.7947;;;;
2021/01/14 08:07:15;;;;;;;0.1;0.1;;;;;;;1.66;91.78027;935.8544;;;;
2021/01/14 08:09:41;;;;;;;0.2;0.2;;;;;;;1.68;91.85156;935.9445;;;;
2021/01/14 08:12:06;;;;;;;0.2;0.2;;;;;;;1.63;91.79883;935.997;;;;
2021/01/14 08:14:31;;;;;;;0.2;0.2;;;;;;;1.66;91.91699;936.1458;;;;
2021/01/14 08:16:56;;;;;;;0.3;0.3;;;;;;;1.66;91.93945;936.2438;;;;
2021/01/14 08:19:21;;;;;;;0.1;0.1;;;;;;;1.4;91.7373;936.2227;;;;
2021/01/14 08:21:46;;;;;;;0.1;0.1;;;;;;;1.22;92.16699;936.1716;;;;
2021/01/14 08:24:12;;;;;;;0.1;0.1;;;;;;;0.91;92.42188;936.2122;;;;
2021/01/14 08:26:37;;;;;;;0.3;0.3;;;;;;;0.86;92.74707;936.1358;;;;
2021/01/14 08:29:02;;;;;;;0.2;0.2;;;;;;;0.54;92.09766;936.1586;;;;
2021/01/14 08:31:27;;;;;;;0.1;0.1;;;;;;;0.55;92.90039;936.2581;;;;
2021/01/14 08:33:52;;;;;;;0.7;0.2;;;;;;;0.52;92.57129;936.4239;;;;
2021/01/14 08:36:18;;;;;;;0.1;0.1;;;;;;;0.36;91.43164;936.5002;;;;
2021/01/14 08:38:43;;;;;;;0.2;0.2;;;;;;;0.09;91.1416;936.4208;;;;
2021/01/14 08:41:09;;;;;;;0.2;0.2;;;;;;;0.07;91.84863;936.563;;;;
2021/01/14 08:43:34;;;;;;;0.2;0.2;;;;;;;-0.06;92.20898;936.5809;;;;
2021/01/14 08:45:59;;;;;;;0.2;0.2;;;;;;;-0.12;91.9873;936.7075;;;;
2021/01/14 08:48:24;;;;;;;0.2;0.2;;;;;;;-0.29;92.25977;936.7099;;;;
2021/01/14 08:50:49;;;;;;;0.1;0.1;;;;;;;-0.27;92.54199;936.8063;;;;
2021/01/14 08:53:14;;;;;;;0.2;0.2;;;;;;;-0.23;91.61816;936.8047;;;;
2021/01/14 08:55:39;;;;;;;0.2;0.2;;;;;;;-0.42;91.67578;936.882;;;;
2021/01/14 08:58:06;;;;;;;0.3;0.3;;;;;;;-0.59;92.16113;936.9656;;;;
2021/01/14 09:00:32;;;;;;;0.3;0.3;;;;;;;-0.61;91.83398;936.9336;;;;
2021/01/14 09:02:55;;;;;;;0.2;0.2;;;;;;;-0.7;92.09277;937.0229;;;;
2021/01/14 09:05:21;;;;;;;0.4;0.4;;;;;;;-0.65;92.28223;937.1227;;;;
2021/01/14 09:07:46;;;;;;;0.2;0.2;;;;;;;-0.52;92.42188;937.1306;;;;
2021/01/14 09:10:13;;;;;;;0.2;0.2;;;;;;;-0.51;91.62207;937.2836;;;;
2021/01/14 09:12:38;;;;;;;0.4;0.4;;;;;;;-0.7;92.35938;937.3113;;;;
2021/01/14 09:15:03;;;;;;;0.2;0.2;;;;;;;-0.65;92.31641;937.4132;;;;
2021/01/14 09:17:30;;;;;;;0.2;0.2;;;;;;;-0.78;92.53125;937.3895;;;;
2021/01/14 09:19:54;;;;;;;1.1;0.3;;;;;;;-0.81;92.3916;937.3989;;;;
2021/01/14 09:22:19;;;;;;;0.3;0.3;;;;;;;-0.86;92.65918;937.5082;;;;
2021/01/14 09:24:44;;;;;;;0.5;0.4;;;;;;;-1.04;92.875;937.544;;;;
2021/01/14 09:27:09;;;;;;;0.3;0.3;;;;;;;-1.17;93.87891;937.6116;;;;
2021/01/14 09:29:34;;;;;;;0.2;0.2;;;;;;;-1.28;94.19629;937.7195;;;;
2021/01/14 09:31:59;;;;;;;0.3;0.3;;;;;;;-1.32;94.71094;937.7165;;;;
2021/01/14 09:34:25;;;;;;;0.3;0.3;;;;;;;-1.28;94.37598;937.8719;;;;
2021/01/14 09:36:50;;;;;;;0.5;0.4;;;;;;;-1.21;94.37012;937.921;;;;
2021/01/14 09:39:16;;;;;;;0.4;0.4;;;;;;;-1.16;94.76953;937.9973;;;;
2021/01/14 09:41:42;;;;;;;0.2;0.2;;;;;;;-1.21;94.08203;937.985;;;;
2021/01/14 09:44:07;;;;;;;0.3;0.3;;;;;;;-1.18;93.53027;938.0014;;;;
2021/01/14 09:46:32;;;;;;;0.2;0.2;;;;;;;-1.22;93.37793;938.0914;;;;
2021/01/14 09:48:58;;;;;;;0.3;0.3;;;;;;;-1.3;93.97266;938.1239;;;;
2021/01/14 09:51:24;;;;;;;0.2;0.2;;;;;;;-1.21;93.59277;938.1647;;;;
2021/01/14 09:53:49;;;;;;;0.2;0.2;;;;;;;-1.17;93.43457;938.2022;;;;
2021/01/14 09:56:14;;;;;;;0.3;0.3;;;;;;;-1.24;93.08496;938.23;;;;
2021/01/14 09:58:40;;;;;;;0.3;0.3;;;;;;;-1.07;92.90039;938.1997;;;;
2021/01/14 10:01:06;;;;;;;0.3;0.3;;;;;;;-0.79;92.47363;938.1381;;;;
2021/01/14 10:03:31;;;;;;;0.3;0.3;;;;;;;-0.76;91.81445;938.1161;;;;
2021/01/14 10:05:56;;;;;;;0.4;0.4;;;;;;;-0.68;90.86426;938.1319;;;;
2021/01/14 10:08:22;;;;;;;0.3;0.3;;;;;;;-0.38;90.19238;938.0934;;;;
2021/01/14 10:10:47;;;;;;;1.6;0.3;;;;;;;-0.3;88.89746;938.1161;;;;
2021/01/14 10:13:12;;;;;;;0.5;0.3;;;;;;;-0.17;88.26758;938.1195;;;;
2021/01/14 10:15:38;;;;;;;0.2;0.2;;;;;;;-0.28;87.17578;938.1219;;;;
2021/01/14 10:18:03;;;;;;;0.2;0.2;;;;;;;-0.26;87.29102;938.1933;;;;
2021/01/14 10:20:29;;;;;;;0.2;0.2;;;;;;;-0.2;86.62305;938.2377;;;;
2021/01/14 10:22:54;;;;;;;1;0.5;;;;;;;-0.02;86.16113;938.2202;;;;
2021/01/14 10:25:19;;;;;;;1.1;0.9;;;;;;;0.17;85.45117;938.1911;;;;
2021/01/14 10:27:44;;;;;;;3.5;1.7;;;;;;;0.17;84.86035;938.217;;;;
2021/01/14 10:30:09;;;;;;;0.8;0.8;;;;;;;0.18;84.24902;938.2281;;;;
2021/01/14 10:32:34;;;;;;;1.4;0.7;;;;;;;0.14;84.55371;938.1129;;;;
2021/01/14 10:34:59;;;;;;;0.6;0.4;;;;;;;0.07;84.8291;938.1925;;;;
2021/01/14 10:37:24;;;;;;;1.2;0.8;;;;;;;0.28;84.49219;938.073;;;;
2021/01/14 10:39:49;;;;;;;3;0.9;;;;;;;0.44;84.53613;938.1269;;;;
2021/01/14 10:42:14;;;;;;;0.3;0.3;;;;;;;0.49;83.75488;938.0792;;;;
2021/01/14 10:44:41;;;;;;;0.4;0.4;;;;;;;0.58;83.2373;938.0717;;;;
2021/01/14 10:47:06;;;;;;;4;1.8;;;;;;;0.47;82.80371;937.9998;;;;
2021/01/14 10:49:33;;;;;;;2.4;1.3;;;;;;;0.39;83.25391;938.0403;;;;
2021/01/14 10:51:59;;;;;;;1.7;1.5;;;;;;;;;;;;;
2021/01/14 10:54:24;;;;;;;1.8;1.1;;;;;;;;;;;;;
2021/01/14 10:56:49;;;;;;;0.7;0.7;;;;;;;;;;;;;
2021/01/14 10:59:16;;;;;;;0.4;0.4;;;;;;;;;;;;;
2021/01/14 11:01:39;;;;;;;5.2;1.1;;;;;;;;;;;;;
2021/01/14 11:04:04;;;;;;;1.5;1;;;;;;;;;;;;;
2021/01/14 11:06:30;;;;;;;0.2;0.2;;;;;;;;;;;;;
2021/01/14 11:08:55;;;;;;;1.5;0.4;;;;;;;;;;;;;
2021/01/14 11:11:20;;;;;;;0.3;0.3;;;;;;;;;;;;;
2021/01/14 11:13:46;;;;;;;0.3;0.3;;;;;;;;;;;;;
2021/01/14 11:16:10;;;;;;;0.2;0.2;;;;;;;;;;;;;
2021/01/14 11:18:35;;;;;;;0.1;0.1;;;;;;;;;;;;;
2021/01/14 11:21:01;;;;;;;0.2;0.2;;;;;;;;;;;;;
2021/01/14 11:23:26;;;;;;;0.9;0.5;;;;;;;;;;;;;
2021/01/14 11:25:51;;;;;;;1.3;1.2;;;;;;;;;;;;;
2021/01/14 11:28:16;;;;;;;3;0.9;;;;;;;;;;;;;
2021/01/14 11:30:41;;;;;;;1;0.9;;;;;;;;;;;;;
2021/01/14 11:33:07;;;;;;;1.3;1;;;;;;;;;;;;;
2021/01/14 11:35:32;;;;;;;2.7;1.4;;;;;;;;;;;;;
2021/01/14 11:37:57;;;;;;;2;1.3;;;;;;;;;;;;;
2021/01/14 11:40:22;;;;;;;1.7;1.3;;;;;;;;;;;;;
2021/01/14 11:42:47;;;;;;;2.7;1.2;;;;;;;;;;;;;
2021/01/14 11:45:12;;;;;;;1.2;1;;;;;;;;;;;;;
2021/01/14 11:47:37;;;;;;;2.7;1.6;;;;;;;;;;;;;
2021/01/14 11:50:02;;;;;;;0.6;0.6;;;;;;;;;;;;;
2021/01/14 11:52:28;;;;;;;0.2;0.2;;;;;;;;;;;;;
2021/01/14 11:54:53;;;;;;;0.3;0.3;;;;;;;;;;;;;
2021/01/14 11:57:18;;;;;;;0.6;0.4;;;;;;;;;;;;;
2021/01/14 11:59:44;;;;;;;0.4;0.4;;;;;;;;;;;;;
2021/01/14 12:02:09;;;;;;;0.5;0.5;;;;;;;;;;;;;
2021/01/14 12:04:35;;;;;;;0.4;0.4;;;;;;;;;;;;;
2021/01/14 12:07:00;;;;;;;0.5;0.4;;;;;;;;;;;;;
2021/01/14 12:09:25;;;;;;;0.2;0.2;;;;;;;;;;;;;
2021/01/14 12:11:50;;;;;;;0.3;0.3;;;;;;;;;;;;;
2021/01/14 12:14:15;;;;;;;1.3;0.4;;;;;;;;;;;;;
2021/01/14 12:16:40;;;;;;;0.3;0.3;;;;;;;;;;;;;
2021/01/14 12:19:05;;;;;;;0.2;0.2;;;;;;;;;;;;;
2021/01/14 12:21:31;;;;;;;0.2;0.2;;;;;;;;;;;;;
2021/01/14 12:23:56;;;;;;;0.2;0.2;;;;;;;;;;;;;
2021/01/14 12:26:21;;;;;;;0.3;0.3;;;;;;;;;;;;;
2021/01/14 12:28:46;;;;;;;0.3;0.3;;;;;;;;;;;;;
2021/01/14 12:31:11;;;;;;;0.2;0.2;;;;;;;;;;;;;
2021/01/14 12:33:37;;;;;;;0.1;0.1;;;;;;;;;;;;;
2021/01/14 12:36:02;;;;;;;0.2;0.2;;;;;;;;;;;;;
2021/01/14 12:38:28;;;;;;;0.2;0.2;;;;;;;;;;;;;
2021/01/14 12:40:53;;;;;;;0.4;0.4;;;;;;;;;;;;;
2021/01/14 12:43:21;;;;;;;0.3;0.3;;;;;;;;;;;;;
2021/01/14 12:45:46;;;;;;;0.1;0.1;;;;;;;;;;;;;
2021/01/14 12:48:12;;;;;;;0.5;0.3;;;;;;;;;;;;;
2021/01/14 12:50:36;;;;;;;0.5;0.5;;;;;;;;;;;;;
2021/01/14 12:53:02;;;;;;;0.8;0.7;;;;;;;;;;;;;
2021/01/14 12:55:27;;;;;;;0.5;0.4;;;;;;;;;;;;;
2021/01/14 12:57:53;;;;;;;1;0.7;;;;;;;;;;;;;
2021/01/14 13:00:18;;;;;;;0.3;0.3;;;;;;;;;;;;;
2021/01/14 13:02:44;;;;;;;0.4;0.4;;;;;;;;;;;;;
2021/01/14 13:05:09;;;;;;;0.9;0.7;;;;;;;;;;;;;
2021/01/14 13:07:34;;;;;;;0.6;0.5;;;;;;;;;;;;;
2021/01/14 13:09:59;;;;;;;0.6;0.6;;;;;;;;;;;;;
2021/01/14 13:12:24;;;;;;;0.5;0.5;;;;;;;;;;;;;
2021/01/14 13:14:49;;;;;;;1.5;0.7;;;;;;;;;;;;;
2021/01/14 13:17:15;;;;;;;1;0.7;;;;;;;;;;;;;
2021/01/14 13:19:40;;;;;;;0.3;0.3;;;;;;;;;;;;;
2021/01/14 13:22:05;;;;;;;0.4;0.3;;;;;;;;;;;;;
2021/01/14 13:24:31;;;;;;;0.6;0.4;;;;;;;;;;;;;
2021/01/14 13:26:56;;;;;;;0.8;0.2;;;;;;;;;;;;;
2021/01/14 13:29:22;;;;;;;0.3;0.3;;;;;;;;;;;;;
2021/01/14 13:31:48;;;;;;;0.4;0.4;;;;;;;;;;;;;
2021/01/14 13:34:14;;;;;;;0.2;0.2;;;;;;;;;;;;;
2021/01/14 13:36:39;;;;;;;0.3;0.3;;;;;;;;;;;;;
2021/01/14 13:39:04;;;;;;;0.1;0.1;;;;;;;;;;;;;
2021/01/14 13:41:29;;;;;;;0.3;0.3;;;;;;;;;;;;;
2021/01/14 13:43:54;;;;;;;1;0.6;;;;;;;;;;;;;
2021/01/14 13:46:21;;;;;;;0.4;0.4;;;;;;;;;;;;;
2021/01/14 13:48:45;;;;;;;0.3;0.3;;;;;;;;;;;;;
2021/01/14 13:51:10;;;;;;;0.9;0.5;;;;;;;;;;;;;
2021/01/14 13:53:36;;;;;;;0.5;0.4;;;;;;;;;;;;;
2021/01/14 13:56:02;;;;;;;0.4;0.4;;;;;;;;;;;;;
2021/01/14 13:58:25;;;;;;;0.3;0.3;;;;;;;;;;;;;
2021/01/14 14:00:51;;;;;;;0.5;0.4;;;;;;;;;;;;;
2021/01/14 14:03:16;;;;;;;0.3;0.3;;;;;;;;;;;;;
2021/01/14 14:05:41;;;;;;;0.4;0.4;;;;;;;;;;;;;
2021/01/14 14:08:06;;;;;;;0.3;0.3;;;;;;;;;;;;;
2021/01/14 14:10:31;;;;;;;0.2;0.2;;;;;;;;;;;;;
2021/01/14 14:13:00;;;;;;;1;0.5;;;;;;;;;;;;;
2021/01/14 14:15:25;;;;;;;0.2;0.2;;;;;;;;;;;;;
2021/01/14 14:17:50;;;;;;;0.2;0.2;;;;;;;;;;;;;
2021/01/14 14:20:16;;;;;;;0.4;0.3;;;;;;;;;;;;;
2021/01/14 14:22:41;;;;;;;1.1;0.3;;;;;;;;;;;;;
2021/01/14 14:25:06;;;;;;;0.3;0.3;;;;;;;;;;;;;
2021/01/14 14:27:31;;;;;;;0.5;0.4;;;;;;;;;;;;;
2021/01/14 14:29:56;;;;;;;0.6;0.5;;;;;;;;;;;;;
2021/01/14 14:32:22;;;;;;;0.6;0.5;;;;;;;;;;;;;
2021/01/14 14:34:47;;;;;;;0.3;0.3;;;;;;;;;;;;;
2021/01/14 14:37:13;;;;;;;0.3;0.3;;;;;;;;;;;;;
2021/01/14 14:39:40;;;;;;;0.4;0.4;;;;;;;;;;;;;
2021/01/14 14:42:04;;;;;;;0.4;0.4;;;;;;;;;;;;;
2021/01/14 14:44:30;;;;;;;0.6;0.6;;;;;;;;;;;;;
2021/01/14 14:46:56;;;;;;;0.5;0.4;;;;;;;;;;;;;
2021/01/14 14:49:21;;;;;;;0.9;0.4;;;;;;;;;;;;;
2021/01/14 14:51:46;;;;;;;1.9;0.5;;;;;;;;;;;;;
2021/01/14 14:54:11;;;;;;;0.6;0.6;;;;;;;;;;;;;
2021/01/14 14:56:36;;;;;;;1.1;0.8;;;;;;;;;;;;;
2021/01/14 14:59:01;;;;;;;0.5;0.5;;;;;;;;;;;;;
2021/01/14 15:01:26;;;;;;;1;0.7;;;;;;;;;;;;;
2021/01/14 15:03:52;;;;;;;1.1;1;;;;;;;;;;;;;
2021/01/14 15:06:17;;;;;;;0.3;0.3;;;;;;;;;;;;;
2021/01/14 15:08:43;;;;;;;0.6;0.6;;;;;;;;;;;;;
2021/01/14 15:11:08;;;;;;;0.3;0.3;;;;;;;;;;;;;
2021/01/14 15:13:34;;;;;;;0.9;0.5;;;;;;;;;;;;;
2021/01/14 15:16:00;;;;;;;0.2;0.2;;;;;;;;;;;;;
2021/01/14 15:18:26;;;;;;;1.4;0.6;;;;;;;;;;;;;
2021/01/14 15:20:51;;;;;;;0.9;0.5;;;;;;;;;;;;;
2021/01/14 15:23:19;;;;;;;0.8;0.7;;;;;;;;;;;;;
2021/01/14 15:25:45;;;;;;;0.8;0.8;;;;;;;;;;;;;
2021/01/14 15:28:10;;;;;;;0.5;0.5;;;;;;;;;;;;;
2021/01/14 15:30:35;;;;;;;0.8;0.7;;;;;;;;;;;;;
2021/01/14 15:33:00;;;;;;;0.6;0.6;;;;;;;;;;;;;
2021/01/14 15:35:25;;;;;;;0.7;0.5;;;;;;;;;;;;;
2021/01/14 15:37:50;;;;;;;0.6;0.4;;;;;;;;;;;;;
2021/01/14 15:40:15;;;;;;;0.8;0.8;;;;;;;;;;;;;
2021/01/14 15:42:42;;;;;;;0.5;0.5;;;;;;;;;;;;;
2021/01/14 15:45:07;;;;;;;1;0.9;;;;;;;;;;;;;
2021/01/14 15:47:33;;;;;;;0.7;0.7;;;;;;;;;;;;;
2021/01/14 15:49:58;;;;;;;0.6;0.6;;;;;;;;;;;;;
2021/01/14 15:52:24;;;;;;;1.6;1;;;;;;;;;;;;;
2021/01/14 15:54:49;;;;;;;2.7;1.1;;;;;;;;;;;;;
2021/01/14 15:57:15;;;;;;;1.4;1;;;;;;;;;;;;;
2021/01/14 15:59:40;;;;;;;1;0.9;;;;;;;;;;;;;